createdAt,value
2018-08-30T00:00:21.980Z,91.25
2018-08-30T00:05:19.426Z,90.83
2018-08-30T00:10:16.851Z,90.64
2018-08-30T00:15:14.187Z,90.97
2018-08-30T00:20:12.689Z,91.17
2018-08-30T00:25:10.072Z,91.84
2018-08-30T00:30:07.476Z,90.93
2018-08-30T00:35:05.492Z,90.75
2018-08-30T00:40:02.905Z,90.13
2018-08-30T00:45:00.601Z,90.39
2018-08-30T00:49:59.588Z,90.28
2018-08-30T00:54:57.075Z,90.48
2018-08-30T00:59:54.459Z,90.48
2018-08-30T01:04:51.823Z,90.30
2018-08-30T01:09:49.209Z,90.00
2018-08-30T01:14:46.580Z,90.26
2018-08-30T01:19:50.595Z,91.00
2018-08-30T01:24:48.327Z,90.66
2018-08-30T01:29:45.696Z,90.37
2018-08-30T01:34:43.067Z,90.20
2018-08-30T01:39:40.437Z,91.03
2018-08-30T01:44:37.805Z,91.36
2018-08-30T01:49:39.520Z,92.04
2018-08-30T01:54:36.994Z,91.99
2018-08-30T01:59:34.363Z,91.73
2018-08-30T02:04:31.743Z,91.60
2018-08-30T02:09:29.437Z,92.64
2018-08-30T02:14:27.291Z,92.41
2018-08-30T02:19:35.323Z,92.78
2018-08-30T02:24:32.809Z,93.52
2018-08-30T02:29:30.259Z,93.82
2018-08-30T02:34:28.034Z,93.77
2018-08-30T02:39:26.436Z,94.49
2018-08-30T02:44:24.860Z,94.44
2018-08-30T02:49:25.744Z,94.27
2018-08-30T02:54:23.184Z,94.28
2018-08-30T02:59:21.132Z,93.90
2018-08-30T03:04:18.511Z,93.76
2018-08-30T03:09:15.893Z,94.48
2018-08-30T03:14:13.355Z,93.83
2018-08-30T03:19:12.267Z,93.93
2018-08-30T03:24:10.185Z,93.70
2018-08-30T03:29:07.576Z,93.46
2018-08-30T03:34:04.979Z,94.22
2018-08-30T03:39:02.446Z,93.56
2018-08-30T03:43:59.822Z,94.20
2018-08-30T03:48:57.489Z,94.19
2018-08-30T03:53:54.876Z,93.62
2018-08-30T03:58:52.287Z,93.85
2018-08-30T04:03:49.679Z,94.04
2018-08-30T04:08:47.082Z,94.35
2018-08-30T04:13:44.466Z,93.88
2018-08-30T04:18:41.878Z,94.54
2018-08-30T04:23:39.259Z,94.34
2018-08-30T04:28:36.651Z,93.94
2018-08-30T04:33:34.038Z,94.16
2018-08-30T04:38:31.528Z,94.52
2018-08-30T04:43:28.959Z,94.24
2018-08-30T04:48:27.036Z,93.69
2018-08-30T04:53:24.459Z,93.96
2018-08-30T04:58:21.894Z,94.63
2018-08-30T05:03:19.347Z,94.23
2018-08-30T05:08:16.794Z,93.09
2018-08-30T05:13:14.303Z,93.00
2018-08-30T05:18:12.426Z,93.21
2018-08-30T05:23:09.864Z,93.74
2018-08-30T05:28:07.691Z,92.71
2018-08-30T05:33:05.624Z,93.69
2018-08-30T05:38:03.007Z,93.58
2018-08-30T05:43:00.408Z,93.46
2018-08-30T05:47:57.807Z,93.91
2018-08-30T05:52:55.251Z,93.87
2018-08-30T05:57:52.662Z,93.47
2018-08-30T06:02:50.079Z,92.92
2018-08-30T06:07:47.520Z,93.52
2018-08-30T06:12:45.036Z,93.89
2018-08-30T06:17:42.487Z,93.24
2018-08-30T06:22:39.919Z,92.66
2018-08-30T06:27:37.354Z,93.61
2018-08-30T06:32:34.840Z,93.37
2018-08-30T06:37:32.907Z,92.85
2018-08-30T06:42:30.320Z,92.81
2018-08-30T06:47:27.782Z,93.26
2018-08-30T06:52:25.232Z,92.76
2018-08-30T06:57:22.707Z,92.70
2018-08-30T07:02:20.515Z,92.91
2018-08-30T07:07:17.922Z,92.44
2018-08-30T07:12:15.347Z,91.82
2018-08-30T07:17:12.730Z,91.76
2018-08-30T07:22:10.146Z,92.05
2018-08-30T07:27:07.539Z,91.90
2018-08-30T07:32:05.705Z,92.25
2018-08-30T07:37:03.122Z,91.64
2018-08-30T07:42:00.547Z,92.44
2018-08-30T07:46:57.930Z,93.12
2018-08-30T07:51:55.348Z,93.05
2018-08-30T07:56:52.734Z,92.92
2018-08-30T08:01:50.106Z,92.66
2018-08-30T08:06:47.530Z,91.98
2018-08-30T08:11:44.965Z,92.01
2018-08-30T08:16:42.351Z,91.24
2018-08-30T08:21:39.751Z,91.06
2018-08-30T08:26:37.147Z,89.27
2018-08-30T08:31:34.538Z,89.86
2018-08-30T08:36:31.931Z,89.65
2018-08-30T08:41:29.579Z,90.91
2018-08-30T08:46:26.976Z,89.19
2018-08-30T08:51:24.368Z,89.33
2018-08-30T08:56:21.790Z,88.15
2018-08-30T09:01:19.292Z,87.60
2018-08-30T09:06:16.727Z,87.88
2018-08-30T09:11:14.157Z,85.40
2018-08-30T09:16:11.996Z,85.46
2018-08-30T09:21:09.543Z,84.29
2018-08-30T09:26:06.983Z,82.78
2018-08-30T09:31:04.708Z,80.95
2018-08-30T09:36:02.044Z,77.84
2018-08-30T09:40:59.466Z,76.95
2018-08-30T09:45:56.920Z,79.67
2018-08-30T09:50:54.347Z,77.11
2018-08-30T09:55:51.756Z,77.08
2018-08-30T10:00:54.871Z,77.11
2018-08-30T10:05:52.304Z,76.73
2018-08-30T10:10:49.699Z,76.41
2018-08-30T10:15:47.157Z,73.79
2018-08-30T10:20:44.738Z,74.75
2018-08-30T10:25:43.175Z,74.44
2018-08-30T10:30:40.672Z,73.65
2018-08-30T10:35:38.146Z,74.77
2018-08-30T10:40:35.548Z,70.88
2018-08-30T10:45:32.975Z,69.22
2018-08-30T10:50:31.007Z,68.59
2018-08-30T10:55:28.411Z,69.58
2018-08-30T11:00:25.866Z,70.44
2018-08-30T11:05:23.294Z,69.41
2018-08-30T11:10:20.713Z,67.62
2018-08-30T11:15:19.069Z,64.36
2018-08-30T11:20:17.513Z,66.60
2018-08-30T11:25:14.916Z,66.55
2018-08-30T11:30:12.372Z,65.98
2018-08-30T11:35:09.774Z,64.18
2018-08-30T11:40:07.207Z,66.03
2018-08-30T11:45:05.404Z,64.90
2018-08-30T11:50:03.960Z,64.25
2018-08-30T11:55:01.642Z,63.65
2018-08-30T11:59:59.043Z,61.71
2018-08-30T12:04:56.515Z,62.86
2018-08-30T12:09:53.985Z,61.85
2018-08-30T12:14:51.413Z,63.61
2018-08-30T12:19:54.608Z,61.83
2018-08-30T12:24:52.071Z,61.64
2018-08-30T12:29:49.495Z,60.73
2018-08-30T12:34:47.439Z,60.10
2018-08-30T12:39:44.953Z,61.39
2018-08-30T12:44:42.387Z,58.81
2018-08-30T12:49:45.477Z,56.99
2018-08-30T12:54:43.079Z,56.97
2018-08-30T12:59:41.940Z,60.35
2018-08-30T13:04:39.553Z,58.33
2018-08-30T13:09:36.908Z,60.54
2018-08-30T13:14:34.638Z,60.36
2018-08-30T13:19:42.353Z,62.48
2018-08-30T13:24:39.870Z,64.74
2018-08-30T13:29:37.345Z,64.15
2018-08-30T13:34:35.006Z,61.84
2018-08-30T13:39:32.475Z,62.73
2018-08-30T13:44:29.921Z,60.93
2018-08-30T13:49:31.627Z,62.41
2018-08-30T13:54:29.922Z,62.53
2018-08-30T13:59:27.794Z,62.26
2018-08-30T14:04:25.028Z,63.46
2018-08-30T14:09:22.444Z,62.80
2018-08-30T14:14:20.011Z,65.61
2018-08-30T14:19:28.059Z,67.14
2018-08-30T14:24:25.660Z,67.46
2018-08-30T14:29:25.516Z,65.81
2018-08-30T14:34:22.938Z,66.87
2018-08-30T14:39:25.230Z,65.57
2018-08-30T14:44:27.615Z,65.24
2018-08-30T14:49:29.775Z,66.34
2018-08-30T14:54:30.348Z,67.01
2018-08-30T14:59:29.971Z,67.48
2018-08-30T15:04:31.202Z,69.86
2018-08-30T15:09:30.850Z,69.53
2018-08-30T15:14:28.303Z,70.77
2018-08-30T15:19:35.019Z,68.44
2018-08-30T15:24:32.648Z,68.80
2018-08-30T15:29:30.100Z,70.68
2018-08-30T15:34:27.534Z,72.07
2018-08-30T15:39:24.972Z,72.29
2018-08-30T15:44:22.366Z,73.56
2018-08-30T15:49:26.238Z,76.03
2018-08-30T15:54:23.831Z,78.57
2018-08-30T15:59:21.268Z,78.82
2018-08-30T16:04:18.652Z,79.64
2018-08-30T16:09:16.056Z,79.47
2018-08-30T16:14:13.670Z,83.21
2018-08-30T16:19:12.727Z,82.79
2018-08-30T16:24:10.194Z,85.94
2018-08-30T16:29:07.673Z,86.83
2018-08-30T16:34:05.121Z,88.26
2018-08-30T16:39:03.826Z,88.78
2018-08-30T16:44:01.237Z,89.46
2018-08-30T16:48:59.541Z,89.01
2018-08-30T16:53:56.955Z,89.28
2018-08-30T16:58:54.572Z,87.98
2018-08-30T17:03:51.984Z,88.75
2018-08-30T17:08:49.465Z,88.34
2018-08-30T17:13:46.857Z,87.63
2018-08-30T17:18:46.387Z,88.23
2018-08-30T17:23:44.340Z,88.60
2018-08-30T17:28:41.762Z,87.48
2018-08-30T17:33:39.166Z,86.98
2018-08-30T17:38:36.603Z,86.71
2018-08-30T17:43:34.007Z,85.53
2018-08-30T17:48:31.439Z,85.25
2018-08-30T17:53:28.899Z,86.18
2018-08-30T17:58:26.386Z,85.06
2018-08-30T18:03:23.862Z,85.61
2018-08-30T18:08:21.302Z,87.09
2018-08-30T18:13:18.696Z,87.04
2018-08-30T18:18:16.188Z,87.14
2018-08-30T18:23:13.623Z,87.06
2018-08-30T18:28:11.045Z,87.65
2018-08-30T18:33:08.523Z,87.44
2018-08-30T18:38:05.935Z,87.49
2018-08-30T18:43:03.375Z,86.94
2018-08-30T18:48:00.740Z,87.34
2018-08-30T18:52:58.134Z,87.76
2018-08-30T18:57:55.535Z,88.21
2018-08-30T19:02:52.916Z,88.08
2018-08-30T19:07:50.356Z,88.01
2018-08-30T19:12:47.729Z,87.69
2018-08-30T19:17:50.711Z,87.65
2018-08-30T19:22:48.108Z,88.52
2018-08-30T19:27:45.820Z,87.93
2018-08-30T19:32:43.968Z,88.29
2018-08-30T19:37:41.339Z,87.61
2018-08-30T19:42:38.736Z,88.99
2018-08-30T19:47:36.122Z,90.68
2018-08-30T19:52:33.628Z,88.63
2018-08-30T19:57:31.026Z,88.48
2018-08-30T20:02:29.429Z,89.66
2018-08-30T20:07:26.807Z,90.80
2018-08-30T20:12:24.255Z,90.87
2018-08-30T20:17:21.641Z,90.90
2018-08-30T20:22:19.123Z,91.90
2018-08-30T20:27:16.531Z,91.45
2018-08-30T20:32:13.967Z,90.86
2018-08-30T20:37:11.567Z,87.98
2018-08-30T20:42:08.959Z,89.34
2018-08-30T20:47:07.279Z,89.28
2018-08-30T20:52:04.867Z,88.00
2018-08-30T20:57:02.307Z,88.95
2018-08-30T21:02:01.885Z,88.91
2018-08-30T21:06:59.255Z,90.11
2018-08-30T21:11:56.639Z,90.45
2018-08-30T21:16:54.011Z,91.39
2018-08-30T21:21:51.423Z,91.24
2018-08-30T21:26:48.807Z,91.05
2018-08-30T21:31:46.200Z,91.02
2018-08-30T21:36:43.575Z,91.81
2018-08-30T21:41:40.999Z,92.63
2018-08-30T21:46:38.671Z,92.77
2018-08-30T21:51:36.135Z,92.25
2018-08-30T21:56:33.526Z,92.72
2018-08-30T22:01:30.911Z,92.89
2018-08-30T22:06:28.322Z,92.68
2018-08-30T22:11:25.694Z,92.27
2018-08-30T22:16:23.155Z,92.28
2018-08-30T22:21:20.584Z,92.18
2018-08-30T22:26:17.966Z,92.46
2018-08-30T22:31:15.390Z,93.05
2018-08-30T22:36:12.850Z,93.58
2018-08-30T22:41:10.797Z,93.42
2018-08-30T22:46:08.160Z,92.28
2018-08-30T22:51:05.604Z,91.67
2018-08-30T22:56:02.978Z,91.88
2018-08-30T23:01:00.338Z,91.31
2018-08-30T23:05:57.799Z,91.98
2018-08-30T23:10:55.175Z,92.66
2018-08-30T23:15:52.607Z,92.93
2018-08-30T23:20:50.015Z,93.61
2018-08-30T23:25:47.715Z,94.88
2018-08-30T23:30:45.113Z,94.49
2018-08-30T23:35:42.614Z,94.45
2018-08-30T23:40:40.023Z,94.77
2018-08-30T23:45:38.080Z,91.85
2018-08-30T23:50:39.481Z,91.46
2018-08-30T23:55:38.193Z,93.26
